EGLC/LCY METAR and TAF weather

Enter ICAO airport designator
Station Type Date Time Source
EGLC METAR 2018/12/10 17:50 UTC NOAA

EGLC 101750Z AUTO 28008KT 9999 FEW028 SCT043 09/05 Q1028


Station Type Date Time Source
EGLC Decoded METAR 2018/12/10 17:50 UTC NOAA

London City Airport, United Kingdom (EGLC) 51-30N 000-30W
Dec 10, 2018 - 12:50 PM EST / 2018.12.10 1750 UTC
Wind: from the W (280 degrees) at 9 MPH (8 KT):0
Visibility: greater than 7 mile(s):0
Sky conditions: partly cloudy
Temperature: 48 F (9 C)
Dew Point: 41 F (5 C)
Relative Humidity: 75%
Pressure (altimeter): 30.36 in. Hg (1028 hPa)
ob: EGLC 101750Z AUTO 28008KT 9999 FEW028 SCT043 09/05 Q1028
cycle: 18

Station Type Date Time Source
EGLC TAF 2018/10/15 21:30 UTC NOAA

TAF EGLC 152119Z 1521/1621 CNL


Example: see airport list